createdAt,value
2019-04-05T00:01:14.095Z,6.20
2019-04-05T00:03:41.546Z,6.30
2019-04-05T00:06:08.970Z,6.20
2019-04-05T00:08:36.766Z,6.20
2019-04-05T00:11:04.266Z,6.20
2019-04-05T00:13:31.717Z,6.30
2019-04-05T00:15:59.182Z,6.20
2019-04-05T00:18:26.663Z,6.30
2019-04-05T00:20:54.088Z,6.30
2019-04-05T00:23:21.589Z,6.30
2019-04-05T00:25:49.030Z,6.30
2019-04-05T00:28:16.522Z,6.30
2019-04-05T00:30:43.968Z,6.30
2019-04-05T00:33:11.446Z,6.30
2019-04-05T00:35:38.907Z,6.30
2019-04-05T00:38:06.327Z,6.30
2019-04-05T00:40:33.953Z,6.20
2019-04-05T00:43:01.393Z,6.20
2019-04-05T00:45:29.076Z,6.20
2019-04-05T00:47:56.601Z,6.30
2019-04-05T00:50:24.018Z,6.20
2019-04-05T00:52:51.488Z,6.20
2019-04-05T00:55:18.941Z,6.20
2019-04-05T00:57:49.362Z,6.20
2019-04-05T01:00:15.727Z,6.20
2019-04-05T01:02:43.165Z,6.20
2019-04-05T01:05:12.408Z,6.20
2019-04-05T01:07:39.902Z,6.20
2019-04-05T01:10:07.815Z,6.20
2019-04-05T01:12:36.507Z,6.20
2019-04-05T01:15:04.270Z,6.20
2019-04-05T01:17:32.087Z,6.20
2019-04-05T01:20:01.959Z,6.20
2019-04-05T01:22:31.610Z,6.10
2019-04-05T01:24:59.466Z,6.20
2019-04-05T01:27:29.017Z,6.10
2019-04-05T01:29:56.464Z,6.10
2019-04-05T01:32:23.895Z,6.20
2019-04-05T01:34:51.357Z,6.20
2019-04-05T01:37:18.802Z,6.10
2019-04-05T01:39:46.263Z,6.10
2019-04-05T01:42:13.724Z,6.20
2019-04-05T01:44:41.162Z,6.10
2019-04-05T01:47:08.620Z,6.10
2019-04-05T01:49:36.037Z,6.10
2019-04-05T01:52:03.637Z,6.10
2019-04-05T01:54:31.362Z,6.20
2019-04-05T01:57:18.290Z,6.10
2019-04-05T01:59:45.722Z,5.90
2019-04-05T02:02:13.154Z,6.20
2019-04-05T02:04:40.606Z,6.10
2019-04-05T02:07:08.050Z,6.10
2019-04-05T02:09:36.391Z,6.10
2019-04-05T02:12:03.803Z,6.00
2019-04-05T02:14:31.222Z,6.00
2019-04-05T02:16:58.684Z,6.10
2019-04-05T02:19:26.095Z,6.10
2019-04-05T02:21:53.558Z,6.10
2019-04-05T02:24:21.325Z,6.10
2019-04-05T02:26:49.039Z,6.10
2019-04-05T02:29:16.493Z,6.10
2019-04-05T02:31:43.929Z,6.20
2019-04-05T02:34:11.371Z,6.20
2019-04-05T02:36:38.901Z,6.20
2019-04-05T02:39:07.185Z,6.10
2019-04-05T02:41:36.021Z,6.10
2019-04-05T02:44:05.603Z,6.00
2019-04-05T02:46:33.182Z,6.00
2019-04-05T02:49:03.384Z,6.00
2019-04-05T02:51:32.405Z,6.00
2019-04-05T02:54:00.353Z,6.00
2019-04-05T02:56:29.766Z,6.00
2019-04-05T02:58:57.698Z,6.00
2019-04-05T03:01:25.632Z,6.00
2019-04-05T03:03:53.129Z,6.10
2019-04-05T03:06:20.640Z,6.10
2019-04-05T03:08:48.221Z,6.20
2019-04-05T03:11:18.452Z,6.20
2019-04-05T03:13:50.801Z,6.10
2019-04-05T03:16:38.513Z,6.10
2019-04-05T03:19:09.420Z,6.00
2019-04-05T03:21:40.672Z,6.20
2019-04-05T03:24:12.416Z,6.20
2019-04-05T03:26:43.947Z,6.20
2019-04-05T03:29:11.771Z,6.10
2019-04-05T03:31:39.330Z,6.10
2019-04-05T03:34:06.892Z,6.10
2019-04-05T03:36:35.743Z,5.90
2019-04-05T03:39:05.072Z,5.90
2019-04-05T03:41:32.492Z,5.90
2019-04-05T03:44:00.062Z,5.90
2019-04-05T03:46:27.855Z,5.90
2019-04-05T03:48:55.474Z,5.90
2019-04-05T03:51:23.146Z,5.90
2019-04-05T03:53:50.872Z,5.90
2019-04-05T03:56:18.643Z,5.90
2019-04-05T03:58:46.109Z,6.00
2019-04-05T04:01:13.773Z,6.00
2019-04-05T04:03:41.436Z,6.00
2019-04-05T04:06:09.170Z,5.90
2019-04-05T04:08:36.826Z,5.90
2019-04-05T04:11:04.657Z,6.00
2019-04-05T04:13:32.610Z,6.10
2019-04-05T04:16:00.774Z,6.00
2019-04-05T04:18:28.406Z,5.80
2019-04-05T04:21:00.439Z,5.90
2019-04-05T04:23:29.300Z,6.00
2019-04-05T04:25:57.471Z,5.90
2019-04-05T04:28:25.120Z,6.00
2019-04-05T04:30:53.139Z,6.00
2019-04-05T04:33:20.811Z,6.00
2019-04-05T04:35:48.833Z,6.10
2019-04-05T04:38:17.119Z,6.10
2019-04-05T04:40:45.351Z,6.10
2019-04-05T04:43:13.775Z,6.00
2019-04-05T04:45:42.326Z,6.00
2019-04-05T04:48:09.816Z,5.90
2019-04-05T04:50:37.680Z,6.00
2019-04-05T04:53:05.639Z,6.00
2019-04-05T04:55:33.811Z,6.00
2019-04-05T04:58:01.305Z,6.00
2019-04-05T05:00:29.128Z,5.90
2019-04-05T05:02:57.179Z,5.90
2019-04-05T05:05:44.409Z,5.90
2019-04-05T05:08:11.846Z,6.00
2019-04-05T05:10:39.327Z,6.00
2019-04-05T05:13:06.999Z,6.10
2019-04-05T05:15:34.842Z,6.10
2019-04-05T05:18:02.695Z,6.10
2019-04-05T05:20:30.590Z,6.10
2019-04-05T05:22:58.328Z,6.00
2019-04-05T05:25:25.985Z,6.10
2019-04-05T05:27:53.559Z,6.10
2019-04-05T05:30:21.084Z,6.20
2019-04-05T05:32:48.675Z,6.20
2019-04-05T05:35:16.091Z,6.10
2019-04-05T05:37:43.612Z,6.20
2019-04-05T05:40:11.457Z,6.20
2019-04-05T05:42:39.305Z,6.30
2019-04-05T05:45:07.377Z,6.30
2019-04-05T05:47:34.821Z,6.30
2019-04-05T05:50:03.939Z,6.30
2019-04-05T05:52:36.664Z,6.20
2019-04-05T05:55:04.441Z,6.30
2019-04-05T05:57:32.156Z,6.10
2019-04-05T06:00:00.505Z,6.10
2019-04-05T06:02:28.560Z,6.10
2019-04-05T06:04:56.023Z,6.20
2019-04-05T06:07:23.487Z,6.10
2019-04-05T06:09:50.946Z,6.20
2019-04-05T06:12:18.419Z,6.00
2019-04-05T06:14:46.006Z,6.10
2019-04-05T06:17:13.736Z,6.20
2019-04-05T06:19:41.209Z,6.20
2019-04-05T06:22:08.616Z,6.20
2019-04-05T06:24:36.075Z,6.20
2019-04-05T06:27:03.509Z,6.20
2019-04-05T06:29:31.006Z,6.20
2019-04-05T06:31:58.883Z,6.20
2019-04-05T06:34:26.320Z,6.20
2019-04-05T06:36:53.803Z,6.30
2019-04-05T06:39:21.240Z,6.30
2019-04-05T06:41:48.649Z,6.30
2019-04-05T06:44:16.101Z,6.30
2019-04-05T06:46:43.557Z,6.20
2019-04-05T06:49:11.064Z,6.20
2019-04-05T06:51:38.527Z,6.20
2019-04-05T06:54:05.990Z,6.10
2019-04-05T06:56:33.433Z,6.20
2019-04-05T06:59:00.928Z,6.20
2019-04-05T07:01:28.411Z,6.20
2019-04-05T07:03:55.855Z,6.20
2019-04-05T07:06:23.299Z,6.20
2019-04-05T07:08:54.084Z,6.20
2019-04-05T07:11:20.015Z,6.20
2019-04-05T07:13:48.237Z,6.20
2019-04-05T07:16:15.671Z,6.30
2019-04-05T07:18:43.098Z,6.10
2019-04-05T07:21:10.587Z,6.10
2019-04-05T07:23:38.510Z,6.40
2019-04-05T07:26:05.969Z,6.40
2019-04-05T07:28:33.394Z,6.70
2019-04-05T07:31:01.126Z,6.60
2019-04-05T07:33:28.543Z,6.50
2019-04-05T07:35:56.052Z,6.50
2019-04-05T07:38:23.470Z,6.70
2019-04-05T07:40:50.903Z,6.70
2019-04-05T07:43:18.321Z,7.00
2019-04-05T07:45:46.113Z,7.20
2019-04-05T07:48:13.741Z,7.40
2019-04-05T07:50:41.509Z,7.40
2019-04-05T07:53:08.940Z,7.30
2019-04-05T07:55:36.778Z,7.20
2019-04-05T07:58:04.203Z,7.40
2019-04-05T08:00:42.108Z,7.20
2019-04-05T08:03:09.534Z,7.30
2019-04-05T08:05:37.290Z,7.30
2019-04-05T08:08:07.343Z,7.40
2019-04-05T08:10:35.215Z,7.20
2019-04-05T08:13:03.419Z,7.20
2019-04-05T08:15:31.007Z,7.30
2019-04-05T08:17:58.422Z,7.30
2019-04-05T08:20:25.888Z,7.20
2019-04-05T08:22:53.310Z,7.10
2019-04-05T08:25:20.751Z,7.20
2019-04-05T08:27:48.222Z,7.20
2019-04-05T08:30:35.140Z,7.30
2019-04-05T08:33:02.658Z,7.10
2019-04-05T08:35:30.148Z,7.60
2019-04-05T08:37:57.624Z,7.60
2019-04-05T08:40:25.124Z,7.60
2019-04-05T08:42:52.896Z,7.40
2019-04-05T08:45:20.476Z,7.40
2019-04-05T08:47:48.148Z,7.60
2019-04-05T08:50:15.633Z,7.60
2019-04-05T08:52:43.210Z,7.80
2019-04-05T08:55:10.762Z,7.90
2019-04-05T08:57:38.251Z,8.00
2019-04-05T09:00:07.139Z,8.10
2019-04-05T09:02:34.715Z,8.10
2019-04-05T09:05:02.226Z,8.00
2019-04-05T09:07:29.738Z,7.90
2019-04-05T09:09:57.247Z,8.20
2019-04-05T09:12:24.743Z,8.40
2019-04-05T09:14:52.341Z,8.40
2019-04-05T09:17:19.816Z,8.40
2019-04-05T09:19:47.310Z,8.40
2019-04-05T09:22:14.781Z,8.60
2019-04-05T09:24:42.295Z,8.40
2019-04-05T09:27:10.165Z,8.20
2019-04-05T09:29:37.635Z,8.30
2019-04-05T09:32:05.108Z,8.20
2019-04-05T09:34:32.575Z,8.20
2019-04-05T09:37:00.051Z,8.20
2019-04-05T09:39:27.573Z,8.30
2019-04-05T09:41:55.033Z,8.50
2019-04-05T09:44:23.759Z,8.70
2019-04-05T09:46:51.658Z,8.60
2019-04-05T09:49:19.106Z,8.80
2019-04-05T09:51:46.624Z,8.80
2019-04-05T09:54:14.058Z,8.60
2019-04-05T09:56:41.583Z,8.70
2019-04-05T09:59:09.049Z,8.90
2019-04-05T10:01:36.506Z,9.00
2019-04-05T10:04:04.004Z,9.00
2019-04-05T10:06:31.779Z,9.10
2019-04-05T10:08:59.510Z,9.40
2019-04-05T10:11:26.938Z,9.10
2019-04-05T10:13:54.398Z,9.10
2019-04-05T10:16:21.909Z,9.20
2019-04-05T10:18:51.533Z,9.10
2019-04-05T10:21:18.842Z,9.00
2019-04-05T10:23:46.381Z,9.10
2019-04-05T10:26:13.820Z,9.20
2019-04-05T10:28:41.303Z,9.40
2019-04-05T10:31:08.833Z,9.30
2019-04-05T10:33:36.340Z,9.20
2019-04-05T10:36:03.938Z,9.10
2019-04-05T10:38:31.411Z,9.20
2019-04-05T10:40:58.898Z,9.60
2019-04-05T10:43:28.086Z,9.60
2019-04-05T10:45:55.937Z,9.30
2019-04-05T10:48:23.412Z,9.30
2019-04-05T10:50:50.874Z,9.40
2019-04-05T10:53:18.348Z,9.40
2019-04-05T10:55:46.081Z,9.30
2019-04-05T10:58:13.531Z,9.10
2019-04-05T11:00:41.053Z,9.10
2019-04-05T11:03:08.876Z,9.10
2019-04-05T11:05:36.297Z,9.30
2019-04-05T11:08:03.725Z,9.20
2019-04-05T11:10:31.162Z,9.30
2019-04-05T11:12:58.617Z,9.40
2019-04-05T11:15:26.056Z,9.40
2019-04-05T11:17:53.524Z,9.50
2019-04-05T11:20:21.938Z,9.60
2019-04-05T11:22:50.922Z,9.60
2019-04-05T11:25:20.571Z,9.60
2019-04-05T11:27:48.274Z,9.60
2019-04-05T11:30:27.037Z,9.50
2019-04-05T11:32:54.368Z,9.30
2019-04-05T11:35:21.918Z,9.30
2019-04-05T11:37:50.694Z,9.70
2019-04-05T11:40:18.240Z,9.90
2019-04-05T11:42:46.580Z,10.00
2019-04-05T11:45:14.871Z,10.00
2019-04-05T11:47:43.263Z,10.30
2019-04-05T11:50:13.182Z,10.70
2019-04-05T11:52:40.771Z,11.00
2019-04-05T11:55:08.309Z,11.10
2019-04-05T11:57:35.793Z,11.20
2019-04-05T12:00:07.726Z,11.20
2019-04-05T12:02:45.210Z,11.10
2019-04-05T12:05:14.534Z,11.40
2019-04-05T12:07:42.001Z,11.50
2019-04-05T12:10:09.657Z,11.50
2019-04-05T12:12:38.413Z,11.70
2019-04-05T12:15:07.913Z,11.60
2019-04-05T12:17:35.821Z,11.60
2019-04-05T12:20:04.414Z,11.60
2019-04-05T12:22:32.626Z,11.70
2019-04-05T12:25:02.853Z,11.40
2019-04-05T12:27:30.948Z,11.10
2019-04-05T12:29:58.366Z,11.00
2019-04-05T12:32:34.580Z,10.90
2019-04-05T12:34:58.365Z,10.90
2019-04-05T12:37:25.818Z,10.70
2019-04-05T12:39:53.237Z,10.80
2019-04-05T12:42:20.683Z,11.00
2019-04-05T12:44:48.167Z,11.20
2019-04-05T12:47:35.187Z,11.20
2019-04-05T12:50:03.343Z,11.00
2019-04-05T12:52:31.180Z,11.00
2019-04-05T12:54:58.618Z,11.10
2019-04-05T12:57:27.880Z,10.80
2019-04-05T12:59:56.429Z,11.20
2019-04-05T13:02:33.378Z,11.20
2019-04-05T13:04:54.527Z,11.30
2019-04-05T13:07:22.892Z,11.20
2019-04-05T13:09:53.975Z,11.00
2019-04-05T13:12:20.177Z,10.80
2019-04-05T13:14:47.649Z,10.70
2019-04-05T13:17:15.173Z,10.70
2019-04-05T13:19:42.932Z,11.00
2019-04-05T13:22:10.709Z,11.10
2019-04-05T13:24:40.282Z,11.20
2019-04-05T13:27:07.452Z,11.20
2019-04-05T13:29:34.951Z,11.30
2019-04-05T13:32:02.787Z,11.20
2019-04-05T13:34:30.238Z,11.30
2019-04-05T13:36:59.322Z,11.50
2019-04-05T13:39:27.525Z,11.40
2019-04-05T13:41:56.352Z,11.20
2019-04-05T13:44:24.896Z,11.10
2019-04-05T13:46:52.667Z,10.90
2019-04-05T13:49:21.370Z,10.80
2019-04-05T13:51:48.827Z,10.80
2019-04-05T13:54:16.603Z,10.80
2019-04-05T13:56:44.312Z,10.80
2019-04-05T13:59:11.758Z,10.80
2019-04-05T14:01:39.231Z,10.80
2019-04-05T14:04:06.687Z,10.80
2019-04-05T14:06:34.495Z,10.90
2019-04-05T14:09:02.004Z,10.80
2019-04-05T14:11:29.430Z,10.70
2019-04-05T14:13:57.237Z,10.40
2019-04-05T14:16:24.721Z,10.40
2019-04-05T14:18:52.206Z,10.30
2019-04-05T14:21:22.258Z,10.30
2019-04-05T14:23:49.285Z,10.30
2019-04-05T14:26:16.959Z,10.40
2019-04-05T14:28:44.927Z,10.40
2019-04-05T14:31:12.420Z,10.30
2019-04-05T14:33:40.023Z,10.40
2019-04-05T14:36:07.439Z,10.30
2019-04-05T14:38:34.914Z,10.50
2019-04-05T14:41:04.159Z,10.50
2019-04-05T14:43:32.049Z,10.60
2019-04-05T14:46:02.715Z,10.50
2019-04-05T14:48:31.764Z,10.40
2019-04-05T14:50:58.565Z,10.30
2019-04-05T14:53:26.103Z,10.30
2019-04-05T14:55:53.577Z,10.30
2019-04-05T14:58:22.152Z,10.30
2019-04-05T15:00:49.656Z,10.30
2019-04-05T15:03:17.183Z,10.30
2019-04-05T15:05:44.961Z,10.50
2019-04-05T15:08:13.081Z,10.50
2019-04-05T15:10:40.599Z,10.50
2019-04-05T15:13:08.160Z,10.40
2019-04-05T15:15:36.135Z,10.40
2019-04-05T15:18:04.131Z,10.30
2019-04-05T15:20:32.693Z,10.40
2019-04-05T15:23:01.195Z,10.50
2019-04-05T15:25:28.697Z,10.50
2019-04-05T15:27:56.769Z,10.50
2019-04-05T15:30:26.451Z,10.40
2019-04-05T15:32:53.509Z,10.40
2019-04-05T15:35:21.006Z,10.30
2019-04-05T15:37:49.019Z,10.30
2019-04-05T15:40:16.445Z,10.30
2019-04-05T15:42:44.005Z,10.20
2019-04-05T15:45:15.845Z,10.30
2019-04-05T15:47:42.055Z,10.30
2019-04-05T15:50:09.761Z,10.40
2019-04-05T15:52:37.296Z,10.50
2019-04-05T15:55:05.370Z,10.50
2019-04-05T15:57:34.231Z,10.40
2019-04-05T16:00:04.789Z,10.50
2019-04-05T16:02:32.974Z,10.50
2019-04-05T16:05:00.703Z,10.60
2019-04-05T16:07:29.035Z,10.50
2019-04-05T16:09:56.891Z,10.50
2019-04-05T16:12:24.376Z,10.50
2019-04-05T16:17:34.549Z,10.70
2019-04-05T16:20:02.169Z,10.50
2019-04-05T16:22:49.263Z,10.40
2019-04-05T16:25:16.967Z,10.30
2019-04-05T16:27:45.003Z,10.40
2019-04-05T16:30:13.343Z,10.40
2019-04-05T16:32:41.497Z,10.40
2019-04-05T16:35:10.348Z,10.40
2019-04-05T16:37:37.822Z,10.30
2019-04-05T16:40:06.001Z,10.30
2019-04-05T16:42:35.225Z,10.30
2019-04-05T16:45:03.114Z,10.40
2019-04-05T16:47:30.579Z,10.40
2019-04-05T16:49:58.113Z,10.40
2019-04-05T16:52:26.022Z,10.40
2019-04-05T16:54:53.468Z,10.40
2019-04-05T16:57:21.028Z,10.40
2019-04-05T16:59:48.835Z,10.30
2019-04-05T17:02:16.694Z,10.30
2019-04-05T17:04:44.696Z,10.30
2019-04-05T17:07:12.338Z,10.30
2019-04-05T17:09:39.895Z,10.30
2019-04-05T17:12:07.353Z,10.20
2019-04-05T17:14:35.138Z,10.10
2019-04-05T17:17:02.616Z,10.00
2019-04-05T17:19:31.281Z,9.90
2019-04-05T17:21:58.823Z,9.90
2019-04-05T17:24:27.697Z,9.80
2019-04-05T17:26:55.156Z,9.90
2019-04-05T17:29:22.605Z,9.90
2019-04-05T17:31:50.106Z,9.90
2019-04-05T17:34:17.562Z,10.00
2019-04-05T17:36:45.492Z,10.00
2019-04-05T17:39:13.007Z,10.00
2019-04-05T17:41:40.862Z,10.00
2019-04-05T17:44:08.356Z,9.90
2019-04-05T17:46:35.848Z,9.90
2019-04-05T17:49:03.416Z,9.90
2019-04-05T17:51:31.033Z,9.90
2019-04-05T17:54:01.113Z,9.80
2019-04-05T17:56:29.163Z,9.80
2019-04-05T17:58:57.292Z,9.70
2019-04-05T18:01:25.231Z,9.60
2019-04-05T18:03:52.843Z,9.50
2019-04-05T18:06:20.441Z,9.40
2019-04-05T18:08:47.962Z,9.30
2019-04-05T18:11:15.529Z,9.30
2019-04-05T18:13:43.055Z,9.20
2019-04-05T18:16:10.584Z,9.20
2019-04-05T18:18:39.079Z,9.30
2019-04-05T18:21:06.518Z,9.20
2019-04-05T18:23:34.206Z,9.30
2019-04-05T18:26:01.709Z,9.30
2019-04-05T18:28:29.153Z,9.30
2019-04-05T18:30:56.618Z,9.30
2019-04-05T18:33:24.102Z,9.30
2019-04-05T18:35:51.512Z,9.30
2019-04-05T18:38:18.978Z,9.30
2019-04-05T18:40:46.403Z,9.30
2019-04-05T18:43:13.872Z,9.30
2019-04-05T18:45:41.765Z,9.30
2019-04-05T18:48:09.187Z,9.30
2019-04-05T18:50:36.626Z,9.30
2019-04-05T18:53:04.107Z,9.30
2019-04-05T18:55:31.532Z,9.30
2019-04-05T18:57:58.959Z,9.40
2019-04-05T19:00:26.415Z,9.50
2019-04-05T19:02:53.878Z,9.40
2019-04-05T19:05:21.462Z,9.40
2019-04-05T19:07:48.915Z,9.40
2019-04-05T19:10:16.473Z,9.40
2019-04-05T19:12:44.051Z,9.40
2019-04-05T19:15:11.675Z,9.40
2019-04-05T19:17:39.103Z,9.40
2019-04-05T19:20:07.430Z,9.40
2019-04-05T19:22:34.922Z,9.40
2019-04-05T19:25:04.854Z,9.40
2019-04-05T19:27:31.662Z,9.30
2019-04-05T19:29:59.088Z,9.40
2019-04-05T19:49:51.531Z,9.30
2019-04-05T19:52:19.069Z,9.30
2019-04-05T19:54:46.526Z,9.30
2019-04-05T19:57:13.983Z,9.30
2019-04-05T19:59:41.461Z,9.30
2019-04-05T20:02:09.274Z,9.30
2019-04-05T20:04:37.470Z,9.20
2019-04-05T20:07:04.905Z,9.30
2019-04-05T20:09:32.347Z,9.10
2019-04-05T20:11:59.780Z,9.10
2019-04-05T20:14:27.528Z,9.20
2019-04-05T20:16:54.979Z,9.10
2019-04-05T20:19:22.786Z,9.10
2019-04-05T20:21:50.218Z,9.00
2019-04-05T20:24:17.663Z,9.00
2019-04-05T20:26:45.535Z,9.00
2019-04-05T20:29:12.961Z,9.00
2019-04-05T20:31:40.384Z,9.00
2019-04-05T20:34:07.885Z,9.00
2019-04-05T20:36:35.327Z,9.00
2019-04-05T20:39:04.454Z,9.00
2019-04-05T20:41:31.926Z,9.00
2019-04-05T20:43:59.389Z,8.90
2019-04-05T20:46:26.803Z,8.90
2019-04-05T20:48:54.254Z,8.90
2019-04-05T20:51:21.750Z,8.80
2019-04-05T20:53:49.209Z,8.90
2019-04-05T20:56:16.660Z,8.90
2019-04-05T20:58:44.190Z,8.80
2019-04-05T21:01:11.609Z,8.80
2019-04-05T21:03:39.083Z,8.70
2019-04-05T21:06:06.563Z,8.70
2019-04-05T21:08:34.102Z,8.70
2019-04-05T21:11:02.716Z,8.70
2019-04-05T21:13:30.211Z,8.70
2019-04-05T21:15:57.910Z,8.70
2019-04-05T21:18:25.902Z,8.70
2019-04-05T21:20:53.385Z,8.70
2019-04-05T21:23:20.888Z,8.70
2019-04-05T21:25:48.396Z,8.60
2019-04-05T21:28:16.168Z,8.70
2019-04-05T21:30:43.655Z,8.70
2019-04-05T21:33:11.161Z,8.60
2019-04-05T21:35:38.942Z,8.60
2019-04-05T21:38:06.393Z,8.50
2019-04-05T21:40:33.871Z,8.50
2019-04-05T21:43:01.719Z,8.40
2019-04-05T21:45:29.213Z,8.40
2019-04-05T21:47:56.649Z,8.40
2019-04-05T21:50:24.086Z,8.40
2019-04-05T21:52:51.585Z,8.40
2019-04-05T21:55:19.010Z,8.40
2019-04-05T21:57:46.436Z,8.40
2019-04-05T22:00:23.672Z,8.40
2019-04-05T22:02:51.511Z,8.40
2019-04-05T22:05:18.978Z,8.40
2019-04-05T22:07:46.485Z,8.40
2019-04-05T22:10:13.905Z,8.30
2019-04-05T22:12:41.351Z,8.30
2019-04-05T22:15:09.144Z,8.30
2019-04-05T22:17:36.558Z,8.30
2019-04-05T22:20:04.610Z,8.40
2019-04-05T22:22:32.071Z,8.40
2019-04-05T22:24:59.797Z,8.30
2019-04-05T22:27:27.325Z,8.30
2019-04-05T22:29:54.806Z,8.30
2019-04-05T22:32:22.271Z,8.30
2019-04-05T22:34:49.719Z,8.40
2019-04-05T22:37:17.186Z,8.30
2019-04-05T22:39:44.630Z,8.20
2019-04-05T22:42:12.041Z,8.20
2019-04-05T22:44:41.570Z,8.30
2019-04-05T22:47:08.698Z,8.30
2019-04-05T22:49:36.110Z,8.30
2019-04-05T22:52:03.534Z,8.30
2019-04-05T22:54:31.049Z,8.40
2019-04-05T22:56:58.464Z,8.30
2019-04-05T22:59:25.937Z,8.30
2019-04-05T23:01:53.389Z,8.30
2019-04-05T23:04:20.838Z,8.30
2019-04-05T23:06:48.254Z,8.20
2019-04-05T23:09:15.758Z,8.20
2019-04-05T23:11:43.326Z,8.30
2019-04-05T23:14:10.728Z,8.20
2019-04-05T23:16:38.183Z,8.20
2019-04-05T23:19:05.599Z,8.20
2019-04-05T23:21:33.082Z,8.00
2019-04-05T23:24:00.559Z,8.10
2019-04-05T23:26:28.968Z,8.10
2019-04-05T23:28:56.613Z,8.10
2019-04-05T23:31:24.063Z,8.10
2019-04-05T23:33:51.495Z,8.00
2019-04-05T23:36:18.938Z,8.10
2019-04-05T23:38:46.410Z,8.10
2019-04-05T23:41:13.822Z,8.10
2019-04-05T23:43:41.242Z,8.00
2019-04-05T23:46:08.711Z,8.00
2019-04-05T23:48:36.130Z,7.90
2019-04-05T23:51:03.560Z,7.90
2019-04-05T23:53:30.994Z,7.90
2019-04-05T23:55:58.418Z,7.90
2019-04-05T23:58:25.865Z,7.80
